Time;durP1;ratioP1;P1;durP2;ratioP2;P2;SDS_P1;SDS_P2;PMS_P1;PMS_P2;Temp;Humidity;BMP_temperature;BMP_pressure;BME280_temperature;BME280_humidity;BME280_pressure;Samples;Min_cycle;Max_cycle;Signal;HPM_P1;HPM_P2
2022/06/23 00:02:24;;;;;;;0.30;0.30;;;16.70;99.90;;;;;;5117344;27;20504;-69
2022/06/23 00:04:56;;;;;;;2.20;2.10;;;16.60;99.90;;;;;;5117273;28;20429;-70
2022/06/23 00:07:25;;;;;;;0.30;0.30;;;16.60;99.90;;;;;;5117071;28;20393;-69
2022/06/23 00:10:31;;;;;;;0.30;0.30;;;16.60;99.90;;;;;;5115722;28;20988;-69
2022/06/23 00:12:56;;;;;;;0.30;0.30;;;16.50;99.90;;;;;;5105727;28;20512;-68
2022/06/23 00:15:29;;;;;;;0.30;0.30;;;16.50;99.90;;;;;;5116961;28;20456;-70
2022/06/23 00:17:57;;;;;;;0.30;0.30;;;16.50;99.90;;;;;;5116918;28;20217;-69
2022/06/23 00:20:29;;;;;;;0.30;0.30;;;16.40;99.90;;;;;;5116903;28;20394;-68
2022/06/23 00:23:01;;;;;;;0.30;0.30;;;16.40;99.90;;;;;;5116488;27;20448;-69
2022/06/23 00:25:39;;;;;;;0.30;0.30;;;16.40;99.90;;;;;;5116950;28;20884;-69
2022/06/23 00:28:06;;;;;;;0.30;0.30;;;16.30;99.90;;;;;;5116841;28;20412;-70
2022/06/23 00:30:43;;;;;;;0.30;0.30;;;16.20;99.90;;;;;;5117043;28;20397;-69
2022/06/23 00:33:41;;;;;;;0.30;0.30;;;16.20;99.90;;;;;;5116723;28;20542;-69
2022/06/23 00:36:36;;;;;;;0.30;0.30;;;16.20;99.90;;;;;;5115233;28;20441;-69
2022/06/23 00:39:06;;;;;;;0.30;0.30;;;16.20;99.90;;;;;;5116769;28;20406;-69
2022/06/23 00:41:35;;;;;;;0.30;0.30;;;16.10;99.90;;;;;;5116647;28;20494;-69
2022/06/23 00:44:07;;;;;;;0.30;0.30;;;16.10;99.90;;;;;;5116346;28;20485;-68
2022/06/23 00:46:50;;;;;;;0.30;0.30;;;16.10;99.90;;;;;;5116340;28;21042;-68
2022/06/23 00:49:32;;;;;;;0.30;0.30;;;16.10;99.90;;;;;;5116825;28;20401;-68
2022/06/23 00:52:10;;;;;;;0.30;0.30;;;16.10;99.90;;;;;;5116389;28;20495;-69
2022/06/23 00:54:45;;;;;;;0.30;0.30;;;16.10;99.90;;;;;;5116346;28;20412;-69
2022/06/23 00:57:20;;;;;;;0.60;0.60;;;16.10;99.90;;;;;;5116154;28;20446;-69
2022/06/23 00:59:53;;;;;;;0.30;0.30;;;16.10;99.90;;;;;;5116373;28;20754;-69
2022/06/23 01:02:23;;;;;;;0.30;0.30;;;16.10;99.90;;;;;;5115824;28;20445;-69
2022/06/23 01:05:08;;;;;;;0.30;0.30;;;16.00;99.90;;;;;;5115972;28;20418;-69
2022/06/23 01:08:01;;;;;;;0.30;0.30;;;16.10;99.90;;;;;;5115943;28;20412;-69
2022/06/23 01:10:39;;;;;;;0.37;0.37;;;16.10;99.90;;;;;;5116067;28;20473;-68
2022/06/23 01:13:14;;;;;;;0.30;0.30;;;16.00;99.90;;;;;;5115702;28;20496;-69
2022/06/23 01:15:52;;;;;;;0.30;0.30;;;16.00;99.90;;;;;;5115763;28;20416;-69
2022/06/23 01:18:32;;;;;;;0.30;0.30;;;16.00;99.90;;;;;;5115753;28;20439;-69
2022/06/23 01:21:07;;;;;;;0.30;0.30;;;16.00;99.90;;;;;;5115871;28;20441;-69
2022/06/23 01:27:06;;;;;;;0.30;0.30;;;15.90;99.90;;;;;;5096640;27;20477;-69
2022/06/23 01:29:41;;;;;;;0.30;0.30;;;15.80;99.90;;;;;;5115588;28;20404;-68
2022/06/23 01:32:27;;;;;;;0.30;0.30;;;15.70;99.90;;;;;;5114096;28;20927;-70
2022/06/23 01:35:07;;;;;;;0.30;0.30;;;15.70;99.90;;;;;;5115543;28;20429;-69
2022/06/23 01:37:50;;;;;;;0.30;0.30;;;15.70;99.90;;;;;;5114153;28;20942;-68
2022/06/23 01:40:19;;;;;;;0.40;0.40;;;15.80;99.90;;;;;;5115447;28;20406;-70
2022/06/23 01:43:03;;;;;;;0.30;0.30;;;15.80;99.90;;;;;;5114574;28;20461;-69
2022/06/23 01:45:42;;;;;;;0.30;0.30;;;15.80;99.90;;;;;;5115154;28;20413;-69
2022/06/23 01:48:11;;;;;;;0.40;0.40;;;15.80;99.90;;;;;;5115426;28;20744;-69
2022/06/23 01:50:49;;;;;;;0.30;0.30;;;15.80;99.90;;;;;;5115341;28;20398;-69
2022/06/23 01:53:17;;;;;;;0.30;0.30;;;15.80;99.90;;;;;;5115020;28;20413;-68
2022/06/23 01:56:03;;;;;;;0.30;0.30;;;15.80;99.90;;;;;;5115057;28;20942;-70
2022/06/23 01:59:05;;;;;;;0.40;0.40;;;15.90;99.90;;;;;;5114638;28;20542;-68
2022/06/23 02:02:04;;;;;;;0.40;0.40;;;15.90;99.90;;;;;;5114921;28;20459;-68
2022/06/23 02:05:01;;;;;;;0.30;0.30;;;15.90;99.90;;;;;;5115028;28;20784;-70
2022/06/23 02:07:30;;;;;;;0.30;0.30;;;16.00;99.90;;;;;;5114778;28;20731;-69
2022/06/23 02:10:08;;;;;;;0.30;0.30;;;16.00;99.90;;;;;;5114770;28;20405;-68
2022/06/23 02:12:39;;;;;;;0.30;0.30;;;16.00;99.90;;;;;;5114568;28;20405;-69
2022/06/23 02:15:15;;;;;;;0.30;0.30;;;16.10;99.90;;;;;;5114773;28;20417;-69
2022/06/23 02:17:51;;;;;;;2.57;0.60;;;16.10;99.90;;;;;;5114583;28;20423;-69
2022/06/23 02:20:30;;;;;;;0.30;0.30;;;16.20;99.90;;;;;;5114666;28;20432;-70
2022/06/23 02:23:18;;;;;;;0.30;0.30;;;16.10;99.90;;;;;;5114435;28;20425;-69
2022/06/23 02:26:15;;;;;;;0.40;0.40;;;16.10;99.90;;;;;;5114633;28;20424;-68
2022/06/23 02:28:46;;;;;;;0.40;0.40;;;16.10;99.90;;;;;;5114607;28;20405;-68
2022/06/23 02:31:31;;;;;;;0.30;0.30;;;16.00;99.90;;;;;;5114564;28;20443;-69
2022/06/23 02:34:05;;;;;;;0.30;0.30;;;16.00;99.90;;;;;;5114140;28;20755;-68
2022/06/23 02:36:42;;;;;;;0.30;0.30;;;16.00;99.90;;;;;;5114188;28;20427;-68
2022/06/23 02:39:20;;;;;;;0.37;0.37;;;15.90;99.90;;;;;;5114472;28;20483;-69
2022/06/23 02:41:53;;;;;;;0.30;0.30;;;15.90;99.90;;;;;;5114173;28;20803;-68
2022/06/23 02:44:18;;;;;;;0.30;0.30;;;15.90;99.90;;;;;;5114127;28;20406;-69
2022/06/23 02:47:23;;;;;;;0.40;0.40;;;15.80;99.90;;;;;;5114054;28;20515;-69
2022/06/23 02:50:36;;;;;;;0.30;0.30;;;15.80;99.90;;;;;;5114296;28;20621;-69
2022/06/23 02:54:03;;;;;;;0.30;0.30;;;15.80;99.90;;;;;;5095085;28;20436;-69
2022/06/23 02:57:05;;;;;;;0.30;0.30;;;15.70;99.90;;;;;;5034122;28;20545;-69
2022/06/23 03:00:15;;;;;;;0.30;0.30;;;15.60;99.90;;;;;;5071505;28;20942;-69
2022/06/23 03:03:07;;;;;;;0.40;0.40;;;15.50;99.90;;;;;;5093009;28;20475;-69
2022/06/23 03:05:50;;;;;;;0.30;0.30;;;15.50;99.90;;;;;;5097566;28;20460;-69
2022/06/23 03:08:39;;;;;;;0.30;0.30;;;15.50;99.90;;;;;;5113980;28;20391;-68
2022/06/23 03:11:51;;;;;;;0.30;0.30;;;15.50;99.90;;;;;;5113743;28;20495;-69
2022/06/23 03:14:14;;;;;;;0.30;0.30;;;15.50;99.90;;;;;;5113669;28;20454;-69
2022/06/23 03:16:46;;;;;;;0.30;0.30;;;15.40;99.90;;;;;;5113875;28;20419;-69
2022/06/23 03:19:26;;;;;;;0.30;0.30;;;15.50;99.90;;;;;;5114057;28;20750;-68
2022/06/23 03:22:01;;;;;;;0.30;0.30;;;15.60;99.90;;;;;;5113683;28;20452;-69
2022/06/23 03:24:41;;;;;;;0.50;0.50;;;15.60;99.90;;;;;;5113914;28;20411;-69
2022/06/23 03:27:27;;;;;;;0.30;0.30;;;15.60;99.90;;;;;;5112467;28;20413;-69
2022/06/23 03:30:02;;;;;;;0.30;0.30;;;15.60;99.90;;;;;;5113971;28;20412;-69
2022/06/23 03:32:42;;;;;;;0.30;0.30;;;15.70;99.90;;;;;;5113697;28;20407;-69
2022/06/23 03:35:23;;;;;;;0.40;0.40;;;15.70;99.90;;;;;;5113761;28;20436;-69
2022/06/23 03:37:55;;;;;;;0.30;0.30;;;15.70;99.90;;;;;;5113678;28;20395;-69
2022/06/23 03:43:23;;;;;;;0.40;0.40;;;15.80;99.90;;;;;;5113789;28;20403;-69
2022/06/23 03:45:57;;;;;;;0.30;0.30;;;15.80;99.90;;;;;;5113635;28;20425;-68
2022/06/23 03:48:43;;;;;;;0.30;0.30;;;15.80;99.90;;;;;;5113810;28;20394;-68
2022/06/23 03:51:15;;;;;;;0.30;0.30;;;15.90;99.90;;;;;;5113789;28;20486;-69
2022/06/23 03:53:56;;;;;;;0.30;0.30;;;16.00;99.90;;;;;;5113460;28;20402;-69
2022/06/23 04:02:39;;;;;;;0.30;0.30;;;16.20;99.90;;;;;;5053094;28;20487;-69
2022/06/23 04:05:16;;;;;;;0.30;0.30;;;16.20;99.90;;;;;;5052505;28;20453;-69
2022/06/23 04:07:56;;;;;;;0.30;0.30;;;16.30;99.90;;;;;;5056882;28;20458;-69
2022/06/23 04:10:30;;;;;;;0.30;0.30;;;16.40;99.90;;;;;;5056713;28;20398;-69
2022/06/23 04:13:01;;;;;;;0.30;0.30;;;16.50;99.90;;;;;;5056860;28;20828;-69
2022/06/23 04:15:37;;;;;;;0.37;0.37;;;16.50;99.90;;;;;;5056654;28;20402;-69
2022/06/23 04:18:12;;;;;;;0.30;0.30;;;16.60;99.90;;;;;;5055020;28;20935;-69
2022/06/23 04:20:54;;;;;;;0.40;0.40;;;16.60;99.90;;;;;;5055083;28;20408;-69
2022/06/23 04:23:38;;;;;;;0.30;0.30;;;16.60;99.90;;;;;;5056554;28;20503;-69
2022/06/23 04:26:14;;;;;;;0.30;0.30;;;16.70;99.90;;;;;;5056343;28;20389;-69
2022/06/23 04:28:53;;;;;;;0.30;0.30;;;17.00;99.90;;;;;;5056097;28;20495;-69
2022/06/23 04:31:26;;;;;;;0.30;0.30;;;17.30;99.90;;;;;;5056176;28;20466;-69
2022/06/23 04:33:54;;;;;;;0.30;0.30;;;17.30;99.90;;;;;;5056195;28;20439;-69
2022/06/23 04:36:32;;;;;;;0.30;0.30;;;17.30;99.90;;;;;;5056148;28;20400;-69
2022/06/23 04:39:19;;;;;;;0.40;0.40;;;17.40;99.90;;;;;;5055966;28;20769;-69
2022/06/23 04:42:07;;;;;;;0.30;0.30;;;17.80;99.90;;;;;;5055954;28;20436;-70
2022/06/23 04:44:36;;;;;;;0.30;0.30;;;18.20;99.90;;;;;;5055929;28;20454;-70
2022/06/23 04:47:36;;;;;;;0.30;0.30;;;18.40;99.90;;;;;;5055787;28;20402;-69
2022/06/23 04:50:12;;;;;;;0.30;0.30;;;18.70;99.90;;;;;;5055223;28;20414;-69
2022/06/23 04:52:53;;;;;;;0.30;0.30;;;19.10;99.90;;;;;;5055914;28;20732;-70
2022/06/23 04:55:40;;;;;;;0.30;0.30;;;19.50;99.90;;;;;;5055721;28;20423;-69
2022/06/23 04:58:11;;;;;;;0.30;0.30;;;19.80;99.90;;;;;;5055297;28;20416;-70
2022/06/23 05:00:47;;;;;;;0.30;0.30;;;20.10;99.90;;;;;;5055684;28;20404;-69
2022/06/23 05:03:19;;;;;;;0.40;0.40;;;20.20;99.90;;;;;;5055643;28;20404;-69
2022/06/23 05:05:54;;;;;;;0.30;0.30;;;20.40;99.90;;;;;;5055477;28;20420;-70
2022/06/23 05:08:27;;;;;;;0.30;0.30;;;20.40;99.90;;;;;;5055244;28;20796;-70
2022/06/23 05:11:05;;;;;;;0.30;0.30;;;20.40;99.90;;;;;;5055502;28;20431;-69
2022/06/23 05:13:38;;;;;;;2.33;2.20;;;20.30;99.90;;;;;;5055218;28;20486;-69
2022/06/23 05:16:07;;;;;;;0.40;0.40;;;20.30;99.90;;;;;;5055270;28;20727;-69
2022/06/23 05:18:45;;;;;;;0.30;0.30;;;20.30;99.90;;;;;;5054156;28;20500;-69
2022/06/23 05:21:17;;;;;;;0.30;0.30;;;20.20;99.90;;;;;;5055331;28;20527;-70
2022/06/23 05:23:48;;;;;;;0.30;0.30;;;20.30;99.90;;;;;;5055202;28;20798;-70
2022/06/23 05:26:32;;;;;;;0.50;0.50;;;20.30;99.90;;;;;;5055133;28;20406;-70
2022/06/23 05:29:05;;;;;;;0.30;0.30;;;20.40;99.90;;;;;;5055060;28;20790;-69
2022/06/23 05:31:36;;;;;;;0.30;0.30;;;20.40;99.90;;;;;;5055089;28;20761;-70
2022/06/23 05:34:19;;;;;;;0.50;0.50;;;20.40;99.90;;;;;;5054986;28;20849;-70
2022/06/23 05:37:12;;;;;;;0.30;0.30;;;20.60;99.90;;;;;;5055250;28;20428;-70
2022/06/23 05:39:44;;;;;;;0.40;0.40;;;20.80;99.90;;;;;;5054717;28;20399;-69
2022/06/23 05:42:16;;;;;;;0.60;0.60;;;21.10;99.90;;;;;;5054498;28;20451;-70
2022/06/23 05:44:51;;;;;;;0.30;0.30;;;21.70;99.90;;;;;;5054688;28;20482;-70
2022/06/23 05:47:18;;;;;;;0.30;0.30;;;22.30;99.80;;;;;;5054541;28;20408;-70
2022/06/23 05:49:49;;;;;;;0.30;0.30;;;22.60;99.40;;;;;;5053258;28;20472;-70
2022/06/23 05:52:23;;;;;;;0.40;0.40;;;22.50;99.30;;;;;;5054740;28;20492;-70
2022/06/23 05:55:20;;;;;;;0.30;0.30;;;22.30;98.30;;;;;;5053386;28;20526;-70
2022/06/23 05:57:53;;;;;;;0.40;0.40;;;22.10;99.10;;;;;;5054520;28;20407;-70
2022/06/23 06:00:28;;;;;;;0.30;0.30;;;22.00;99.00;;;;;;5054350;28;20400;-70
2022/06/23 06:03:10;;;;;;;0.30;0.30;;;21.90;98.70;;;;;;5054392;28;20451;-70
2022/06/23 06:05:40;;;;;;;1.23;1.23;;;22.30;99.00;;;;;;5054199;28;20391;-70
2022/06/23 06:08:16;;;;;;;0.30;0.30;;;23.00;99.10;;;;;;5054271;28;20400;-70
2022/06/23 06:10:42;;;;;;;0.40;0.40;;;23.90;98.10;;;;;;5054315;28;20399;-71
2022/06/23 06:13:14;;;;;;;0.30;0.30;;;24.40;96.40;;;;;;5054279;28;20542;-69
2022/06/23 06:15:46;;;;;;;0.30;0.30;;;25.10;95.50;;;;;;5054094;28;20237;-71
2022/06/23 06:18:23;;;;;;;0.30;0.30;;;25.90;95.00;;;;;;5054112;28;20790;-70
2022/06/23 06:20:51;;;;;;;0.40;0.40;;;27.00;92.50;;;;;;5054281;28;20394;-70
2022/06/23 06:23:27;;;;;;;0.30;0.30;;;28.00;90.20;;;;;;5054009;28;20408;-70
2022/06/23 06:25:53;;;;;;;0.30;0.30;;;28.80;87.90;;;;;;5053926;28;20380;-71
2022/06/23 06:28:22;;;;;;;0.30;0.30;;;29.50;86.70;;;;;;5053752;28;20465;-70
2022/06/23 06:31:07;;;;;;;0.40;0.40;;;30.20;81.00;;;;;;5053878;28;20764;-71
2022/06/23 06:33:52;;;;;;;0.37;0.37;;;30.80;80.10;;;;;;5053929;28;20428;-71
2022/06/23 06:36:25;;;;;;;0.30;0.30;;;31.80;77.80;;;;;;5053667;28;20438;-71
2022/06/23 06:38:51;;;;;;;0.40;0.40;;;32.30;73.80;;;;;;5053526;28;20876;-70
2022/06/23 06:41:17;;;;;;;0.40;0.40;;;33.00;71.70;;;;;;5053623;28;20452;-71
2022/06/23 06:43:43;;;;;;;1.63;0.80;;;33.80;68.30;;;;;;5053568;28;20432;-71
2022/06/23 06:46:08;;;;;;;0.40;0.40;;;34.70;64.80;;;;;;5053613;28;20170;-71
2022/06/23 06:48:36;;;;;;;0.40;0.40;;;35.60;61.40;;;;;;5053491;28;20630;-72
2022/06/23 06:51:08;;;;;;;0.30;0.30;;;36.50;58.80;;;;;;5053705;28;20169;-72
2022/06/23 06:53:43;;;;;;;0.40;0.40;;;36.90;56.20;;;;;;5053677;28;20428;-72
2022/06/23 06:56:22;;;;;;;0.30;0.30;;;37.30;54.30;;;;;;5053507;28;20395;-72
2022/06/23 06:59:10;;;;;;;0.30;0.30;;;37.80;51.30;;;;;;5053454;28;20459;-71
2022/06/23 07:01:39;;;;;;;2.00;1.03;;;38.40;50.50;;;;;;5053375;28;20436;-71
2022/06/23 07:04:08;;;;;;;0.30;0.30;;;38.90;49.60;;;;;;5053293;28;20458;-71
2022/06/23 07:06:40;;;;;;;0.40;0.40;;;39.30;47.70;;;;;;5053301;28;20417;-71
2022/06/23 07:09:06;;;;;;;0.40;0.30;;;39.10;46.60;;;;;;5053355;28;20850;-72
2022/06/23 07:12:01;;;;;;;0.30;0.30;;;39.00;47.00;;;;;;5053394;28;20409;-71
2022/06/23 07:14:53;;;;;;;0.30;0.30;;;38.80;44.10;;;;;;5044098;28;20291;-71
2022/06/23 07:17:37;;;;;;;0.33;0.33;;;38.90;45.20;;;;;;5051255;28;20423;-71
2022/06/23 07:20:12;;;;;;;0.30;0.30;;;39.30;46.30;;;;;;5053503;28;20495;-71
2022/06/23 07:23:05;;;;;;;0.37;0.37;;;39.70;46.50;;;;;;5053196;28;20505;-72
2022/06/23 07:25:39;;;;;;;0.30;0.30;;;40.00;42.90;;;;;;5053387;28;20514;-71
2022/06/23 07:28:10;;;;;;;0.60;0.60;;;39.70;42.00;;;;;;5051763;28;20425;-71
2022/06/23 07:31:06;;;;;;;0.30;0.30;;;39.70;43.20;;;;;;5053635;28;20405;-72
2022/06/23 07:33:44;;;;;;;1.70;0.53;;;39.20;41.80;;;;;;5049547;28;20444;-71
2022/06/23 07:36:23;;;;;;;0.70;0.43;;;38.70;40.60;;;;;;5053270;28;20440;-71
2022/06/23 07:38:52;;;;;;;0.93;0.93;;;37.50;42.70;;;;;;5052962;28;20499;-71
2022/06/23 07:41:31;;;;;;;0.30;0.30;;;37.30;44.40;;;;;;5054641;28;20460;-71
2022/06/23 07:44:13;;;;;;;0.50;0.50;;;37.50;42.80;;;;;;5057127;28;20460;-71
2022/06/23 07:46:39;;;;;;;0.40;0.40;;;38.00;43.00;;;;;;5056957;28;20468;-71
2022/06/23 07:49:06;;;;;;;0.30;0.30;;;38.20;41.30;;;;;;5056805;28;20445;-72
2022/06/23 07:51:33;;;;;;;0.43;0.43;;;37.70;41.70;;;;;;5056991;28;20397;-71
2022/06/23 07:53:59;;;;;;;0.30;0.30;;;37.70;43.40;;;;;;5056795;28;20440;-71
2022/06/23 07:56:29;;;;;;;0.30;0.30;;;37.60;42.60;;;;;;5056936;28;20420;-71
2022/06/23 07:58:59;;;;;;;0.50;0.50;;;38.40;43.90;;;;;;5056669;28;20423;-71
2022/06/23 08:01:54;;;;;;;0.30;0.30;;;38.90;41.10;;;;;;5056822;28;20458;-71
2022/06/23 08:04:42;;;;;;;0.50;0.50;;;38.80;40.60;;;;;;5047192;28;20498;-71
2022/06/23 08:07:11;;;;;;;0.50;0.50;;;39.00;41.00;;;;;;5056547;28;20426;-71
2022/06/23 08:09:48;;;;;;;0.30;0.30;;;39.20;40.60;;;;;;5056567;28;20458;-71
2022/06/23 08:18:01;;;;;;;0.30;0.30;;;39.80;39.80;;;;;;5056493;28;20403;-71
2022/06/23 08:20:30;;;;;;;0.67;0.40;;;39.60;39.50;;;;;;5056462;28;20415;-72
2022/06/23 08:22:55;;;;;;;0.30;0.30;;;39.60;39.00;;;;;;5056148;28;20456;-70
2022/06/23 08:25:21;;;;;;;0.33;0.30;;;39.70;38.90;;;;;;5056077;28;20932;-72
2022/06/23 08:27:52;;;;;;;0.70;0.70;;;39.80;40.10;;;;;;5056066;28;20176;-71
2022/06/23 08:30:18;;;;;;;0.50;0.50;;;40.30;39.10;;;;;;5056106;28;20582;-72
2022/06/23 08:32:47;;;;;;;0.40;0.40;;;40.30;38.20;;;;;;5056226;28;20765;-71
2022/06/23 08:35:36;;;;;;;0.30;0.30;;;40.00;38.50;;;;;;5056091;28;20503;-71
2022/06/23 08:38:16;;;;;;;0.70;0.50;;;39.80;38.60;;;;;;5056067;28;20490;-72
2022/06/23 08:40:54;;;;;;;0.30;0.30;;;39.70;38.90;;;;;;5056069;28;20407;-71
2022/06/23 08:44:01;;;;;;;0.60;0.60;;;39.60;38.80;;;;;;5055994;28;20515;-71
2022/06/23 08:46:40;;;;;;;0.30;0.30;;;39.90;38.30;;;;;;5056176;28;20425;-71
2022/06/23 08:49:55;;;;;;;0.30;0.30;;;39.50;38.00;;;;;;5055698;28;20457;-72
2022/06/23 08:53:05;;;;;;;0.70;0.70;;;39.30;38.40;;;;;;5052161;28;20423;-72
2022/06/23 08:55:47;;;;;;;0.40;0.30;;;38.30;37.90;;;;;;5036084;28;20451;-72
2022/06/23 08:58:21;;;;;;;0.40;0.30;;;37.70;39.30;;;;;;5055504;28;20492;-71
2022/06/23 09:01:08;;;;;;;0.33;0.30;;;37.60;41.00;;;;;;5055695;28;20788;-71
2022/06/23 09:03:44;;;;;;;0.40;0.40;;;38.00;40.10;;;;;;5055623;28;20441;-70
2022/06/23 09:06:45;;;;;;;0.57;0.53;;;38.60;39.40;;;;;;5055378;28;20428;-71
2022/06/23 09:09:16;;;;;;;0.30;0.30;;;38.60;40.60;;;;;;5055197;28;20413;-71
2022/06/23 09:12:03;;;;;;;0.30;0.30;;;38.70;38.80;;;;;;5055571;28;20881;-71
2022/06/23 09:14:59;;;;;;;0.70;0.70;;;39.00;38.10;;;;;;5055273;28;20842;-71
2022/06/23 09:17:52;;;;;;;0.60;0.60;;;39.30;40.00;;;;;;5055486;28;20845;-72
2022/06/23 09:20:36;;;;;;;0.40;0.30;;;38.70;39.20;;;;;;5055392;28;20428;-72
2022/06/23 09:23:15;;;;;;;0.40;0.40;;;37.90;42.00;;;;;;5055170;28;20879;-71
2022/06/23 09:26:11;;;;;;;0.30;0.30;;;38.00;40.70;;;;;;5055119;28;20435;-71
2022/06/23 09:29:10;;;;;;;0.40;0.40;;;38.40;39.90;;;;;;5054840;28;20546;-72
2022/06/23 09:31:49;;;;;;;0.40;0.30;;;38.00;39.50;;;;;;5054952;28;20412;-71
2022/06/23 09:34:28;;;;;;;1.37;1.37;;;37.40;39.20;;;;;;5054995;28;20923;-71
2022/06/23 09:37:06;;;;;;;0.30;0.30;;;37.40;41.30;;;;;;5054949;28;20396;-71
2022/06/23 09:40:08;;;;;;;0.40;0.30;;;37.70;41.60;;;;;;5054627;28;20775;-71
2022/06/23 09:43:04;;;;;;;0.40;0.30;;;38.20;42.40;;;;;;5054894;28;20953;-71
2022/06/23 09:45:48;;;;;;;0.40;0.30;;;38.20;40.40;;;;;;5054769;28;20484;-71
2022/06/23 09:48:41;;;;;;;1.80;0.70;;;38.40;40.80;;;;;;5054904;28;20490;-71
2022/06/23 09:51:19;;;;;;;0.43;0.40;;;38.20;41.00;;;;;;5054805;28;20423;-71
2022/06/23 09:54:05;;;;;;;0.43;0.43;;;38.30;42.00;;;;;;5054417;28;20503;-71
2022/06/23 09:56:46;;;;;;;0.60;0.40;;;38.50;39.20;;;;;;5054427;28;20389;-72
2022/06/23 09:59:17;;;;;;;0.40;0.30;;;37.60;40.70;;;;;;5054296;28;20392;-70
2022/06/23 10:02:00;;;;;;;0.40;0.30;;;36.70;41.20;;;;;;5054384;28;20506;-70
2022/06/23 10:04:46;;;;;;;0.70;0.70;;;36.50;44.40;;;;;;5053966;28;20511;-71
2022/06/23 10:07:15;;;;;;;0.40;0.40;;;37.00;44.50;;;;;;5054204;28;20500;-71
2022/06/23 10:09:55;;;;;;;0.57;0.57;;;36.80;41.00;;;;;;5054005;28;20404;-71
2022/06/23 10:12:33;;;;;;;0.40;0.40;;;36.40;43.20;;;;;;5054395;28;20400;-70
2022/06/23 10:15:07;;;;;;;1.93;1.83;;;36.40;42.20;;;;;;5054021;28;20427;-71
2022/06/23 10:17:39;;;;;;;0.43;0.40;;;36.60;43.70;;;;;;5054351;28;20827;-71
2022/06/23 10:20:23;;;;;;;0.40;0.30;;;37.00;45.20;;;;;;5053906;28;20404;-70
2022/06/23 10:23:07;;;;;;;0.30;0.30;;;36.90;41.50;;;;;;5054222;28;20444;-71
2022/06/23 10:25:58;;;;;;;0.40;0.40;;;36.60;44.10;;;;;;5053854;28;20472;-71
2022/06/23 10:28:23;;;;;;;0.40;0.30;;;35.90;41.40;;;;;;5053692;28;20491;-71
2022/06/23 10:31:23;;;;;;;1.00;1.00;;;35.60;44.40;;;;;;5054056;28;20528;-70
2022/06/23 10:33:58;;;;;;;0.97;0.70;;;35.80;42.80;;;;;;5053883;28;20205;-72
2022/06/23 10:36:24;;;;;;;3.90;2.63;;;35.90;43.90;;;;;;5054027;28;20798;-71
2022/06/23 10:38:50;;;;;;;0.40;0.40;;;35.70;42.30;;;;;;5052242;28;20404;-71
2022/06/23 10:41:28;;;;;;;0.40;0.30;;;35.20;43.70;;;;;;5053719;28;20529;-71
2022/06/23 10:44:00;;;;;;;0.60;0.60;;;34.90;45.40;;;;;;5053680;28;20280;-71
2022/06/23 10:46:45;;;;;;;0.50;0.50;;;34.20;44.40;;;;;;5053624;28;20961;-71
2022/06/23 10:49:21;;;;;;;0.30;0.30;;;33.70;46.40;;;;;;5053455;28;20397;-71
2022/06/23 10:52:08;;;;;;;0.30;0.30;;;33.60;46.70;;;;;;5053803;28;20404;-71
2022/06/23 10:54:42;;;;;;;0.77;0.77;;;33.70;45.80;;;;;;5053409;28;20420;-71
2022/06/23 10:57:23;;;;;;;0.30;0.30;;;33.80;49.30;;;;;;5052223;28;20404;-71
2022/06/23 10:59:58;;;;;;;0.30;0.30;;;33.40;45.10;;;;;;5053392;28;20815;-71
2022/06/23 11:02:51;;;;;;;0.60;0.60;;;32.80;46.60;;;;;;5052258;28;20459;-70
2022/06/23 11:05:40;;;;;;;0.30;0.30;;;32.10;48.60;;;;;;5053409;28;20883;-71
2022/06/23 11:08:46;;;;;;;0.40;0.40;;;31.70;50.40;;;;;;5053436;28;20389;-71
2022/06/23 11:11:35;;;;;;;0.80;0.57;;;31.60;52.00;;;;;;5052269;28;20404;-71
2022/06/23 11:14:15;;;;;;;0.30;0.30;;;31.60;49.30;;;;;;5053546;28;20416;-70
2022/06/23 11:16:59;;;;;;;1.93;1.50;;;31.30;50.00;;;;;;5055890;28;20762;-70
2022/06/23 11:20:16;;;;;;;0.30;0.30;;;31.30;51.40;;;;;;5057228;28;20492;-70
2022/06/23 11:23:09;;;;;;;0.30;0.30;;;31.20;51.80;;;;;;5015683;28;20500;-70
2022/06/23 11:25:55;;;;;;;0.30;0.30;;;31.10;50.90;;;;;;5015738;28;20387;-70
2022/06/23 11:28:26;;;;;;;0.30;0.30;;;30.90;48.90;;;;;;5051463;28;20427;-71
2022/06/23 11:31:06;;;;;;;0.30;0.30;;;30.60;49.80;;;;;;5057197;28;20771;-70
2022/06/23 11:33:58;;;;;;;0.43;0.40;;;30.60;52.40;;;;;;5057252;28;20419;-70
2022/06/23 11:36:54;;;;;;;0.30;0.30;;;30.50;56.20;;;;;;5057081;28;20830;-70
2022/06/23 11:39:52;;;;;;;0.30;0.30;;;30.50;52.60;;;;;;5057097;28;20395;-72
2022/06/23 11:42:27;;;;;;;0.30;0.30;;;30.50;53.40;;;;;;5051336;28;20522;-72
2022/06/23 11:45:42;;;;;;;0.30;0.30;;;30.60;51.20;;;;;;5056814;28;20426;-71
2022/06/23 11:48:29;;;;;;;0.30;0.30;;;30.40;50.90;;;;;;5056893;28;20491;-71
2022/06/23 11:51:10;;;;;;;0.40;0.40;;;29.90;52.80;;;;;;5057030;28;20543;-70
2022/06/23 11:53:47;;;;;;;0.40;0.40;;;29.80;53.70;;;;;;5056895;28;20431;-71
2022/06/23 11:56:25;;;;;;;0.40;0.40;;;29.90;55.10;;;;;;5057082;28;20409;-70
2022/06/23 11:59:26;;;;;;;0.33;0.33;;;30.10;53.10;;;;;;5055354;28;20794;-71
2022/06/23 12:01:54;;;;;;;0.40;0.40;;;30.20;50.70;;;;;;5057037;28;20848;-71
2022/06/23 12:04:50;;;;;;;0.40;0.40;;;30.20;50.70;;;;;;5056646;28;20474;-70
2022/06/23 12:07:38;;;;;;;0.30;0.30;;;30.10;50.70;;;;;;5056634;28;20943;-70
2022/06/23 12:10:22;;;;;;;0.30;0.30;;;29.90;49.80;;;;;;5056347;28;21015;-71
2022/06/23 12:12:56;;;;;;;0.30;0.30;;;29.90;48.40;;;;;;5056529;28;20400;-71
2022/06/23 12:15:49;;;;;;;0.30;0.30;;;29.90;50.00;;;;;;5056348;28;20432;-70
2022/06/23 12:18:27;;;;;;;0.40;0.40;;;30.10;51.20;;;;;;5054584;28;20674;-71
2022/06/23 12:21:04;;;;;;;0.83;0.83;;;30.30;50.70;;;;;;5056651;28;20393;-71
2022/06/23 12:23:42;;;;;;;0.30;0.30;;;30.10;50.30;;;;;;5056557;28;20512;-70
2022/06/23 12:26:25;;;;;;;0.37;0.37;;;29.90;50.20;;;;;;5056136;28;20365;-71
2022/06/23 12:28:59;;;;;;;0.30;0.30;;;30.00;52.70;;;;;;5056001;28;20397;-70
2022/06/23 12:31:31;;;;;;;0.60;0.60;;;30.10;52.70;;;;;;5056369;28;20428;-71
2022/06/23 12:34:12;;;;;;;0.30;0.30;;;30.20;49.70;;;;;;5056112;28;20522;-70
2022/06/23 12:37:01;;;;;;;0.30;0.30;;;30.10;49.10;;;;;;5056178;28;20396;-71
2022/06/23 12:39:47;;;;;;;0.40;0.40;;;30.30;50.70;;;;;;5055930;28;20947;-71
2022/06/23 12:42:19;;;;;;;0.30;0.30;;;30.10;49.10;;;;;;5055898;28;20452;-71
2022/06/23 12:45:11;;;;;;;0.30;0.30;;;30.10;49.10;;;;;;5055934;28;20917;-71
2022/06/23 12:48:04;;;;;;;0.30;0.30;;;29.80;51.90;;;;;;5055789;28;20435;-71
2022/06/23 12:50:59;;;;;;;0.47;0.47;;;29.50;53.90;;;;;;5055817;28;20411;-70
2022/06/23 12:53:49;;;;;;;0.30;0.30;;;29.30;53.50;;;;;;5055624;28;20437;-71
2022/06/23 12:56:41;;;;;;;0.50;0.50;;;29.30;51.80;;;;;;5055711;28;20405;-71
2022/06/23 12:59:37;;;;;;;0.30;0.30;;;29.60;50.90;;;;;;5055537;28;20401;-71
2022/06/23 13:02:21;;;;;;;0.30;0.30;;;29.40;50.50;;;;;;5055441;28;20452;-71
2022/06/23 13:04:52;;;;;;;0.47;0.47;;;29.60;52.40;;;;;;5055569;28;20499;-71
2022/06/23 13:07:59;;;;;;;0.40;0.40;;;29.70;52.30;;;;;;5055484;28;20755;-70
2022/06/23 13:10:36;;;;;;;0.30;0.30;;;29.70;51.50;;;;;;5043790;28;20416;-71
2022/06/23 13:13:10;;;;;;;0.30;0.30;;;29.90;52.80;;;;;;5055333;28;20392;-71
2022/06/23 13:16:06;;;;;;;11.43;0.97;;;30.30;51.60;;;;;;5055425;28;20381;-70
2022/06/23 13:18:37;;;;;;;0.30;0.30;;;30.50;48.90;;;;;;5055247;28;20462;-71
2022/06/23 13:21:26;;;;;;;0.30;0.30;;;30.70;50.70;;;;;;5055319;28;20412;-71
2022/06/23 13:24:00;;;;;;;0.40;0.40;;;30.70;49.00;;;;;;5055093;28;20944;-71
2022/06/23 13:26:30;;;;;;;0.30;0.30;;;30.70;50.40;;;;;;5055104;28;20391;-70
2022/06/23 13:29:13;;;;;;;1.13;1.10;;;30.80;49.60;;;;;;5054896;28;20440;-70
2022/06/23 13:31:44;;;;;;;0.30;0.30;;;30.90;50.60;;;;;;5055214;28;20911;-70
2022/06/23 13:34:28;;;;;;;0.40;0.40;;;30.90;48.90;;;;;;5053723;28;20951;-70
2022/06/23 13:37:07;;;;;;;0.33;0.33;;;30.90;50.40;;;;;;5054950;28;20884;-70
2022/06/23 13:40:00;;;;;;;0.40;0.40;;;30.80;50.30;;;;;;5053992;28;20400;-71
2022/06/23 13:42:43;;;;;;;0.30;0.30;;;30.70;50.50;;;;;;5054775;28;20455;-71
2022/06/23 13:45:29;;;;;;;0.30;0.30;;;30.60;49.50;;;;;;5054883;28;20798;-71
2022/06/23 13:48:26;;;;;;;0.30;0.30;;;30.30;47.80;;;;;;5054660;28;20401;-70
2022/06/23 13:51:09;;;;;;;6.43;0.60;;;30.00;48.50;;;;;;5039117;28;20408;-71
2022/06/23 13:53:45;;;;;;;0.30;0.30;;;29.70;50.90;;;;;;5054679;28;20463;-70
2022/06/23 13:56:28;;;;;;;0.60;0.60;;;29.20;51.90;;;;;;5054759;28;20483;-71
2022/06/23 13:59:09;;;;;;;0.30;0.30;;;28.80;51.20;;;;;;5054385;28;20562;-70
2022/06/23 14:01:57;;;;;;;0.30;0.30;;;28.70;56.90;;;;;;5054402;28;20854;-71
2022/06/23 14:04:55;;;;;;;0.70;0.70;;;28.70;53.00;;;;;;5054768;28;20466;-71
2022/06/23 14:07:40;;;;;;;0.37;0.37;;;28.70;60.80;;;;;;5054313;28;20422;-71
2022/06/23 14:10:15;;;;;;;0.30;0.30;;;28.50;59.90;;;;;;5054214;28;20477;-70
2022/06/23 14:12:48;;;;;;;1.67;1.57;;;28.30;52.60;;;;;;5054372;28;20396;-72
2022/06/23 14:15:40;;;;;;;0.30;0.30;;;28.20;52.60;;;;;;5054109;28;20416;-70